createdAt,value
2023-06-16T00:21:25.851Z,1002.65
2023-06-16T00:22:26.048Z,1002.69
2023-06-16T00:23:26.192Z,1002.60
2023-06-16T00:24:27.445Z,1002.63
2023-06-16T00:25:26.787Z,1002.64
2023-06-16T00:26:29.486Z,1002.61
2023-06-16T00:27:27.263Z,1002.62
2023-06-16T00:28:27.395Z,1002.62
2023-06-16T00:29:28.699Z,1002.62
2023-06-16T00:30:27.932Z,1002.65
2023-06-16T00:31:28.186Z,1002.64
2023-06-16T00:32:28.354Z,1002.64
2023-06-16T00:33:31.553Z,1002.65
2023-06-16T00:34:32.388Z,1002.69
2023-06-16T00:35:29.070Z,1002.65
2023-06-16T00:36:31.699Z,1002.68
2023-06-16T00:37:31.005Z,1002.71
2023-06-16T00:38:32.152Z,1002.66
2023-06-16T00:39:30.811Z,1002.67
2023-06-16T00:40:31.012Z,1002.66
2023-06-16T00:41:32.188Z,1002.63
2023-06-16T00:42:30.332Z,1002.67
2023-06-16T00:43:32.793Z,1002.64
2023-06-16T00:44:33.515Z,1002.66
2023-06-16T00:45:31.225Z,1002.64
2023-06-16T00:46:33.959Z,1002.62
2023-06-16T00:47:32.165Z,1002.66
2023-06-16T00:48:33.250Z,1002.62
2023-06-16T00:49:31.906Z,1002.62
2023-06-16T00:50:32.043Z,1002.58
2023-06-16T00:51:34.772Z,1002.60
2023-06-16T00:52:33.907Z,1002.60
2023-06-16T00:53:35.558Z,1002.65
2023-06-16T00:54:34.720Z,1002.63
2023-06-16T00:55:32.889Z,1002.63
2023-06-16T00:56:33.047Z,1002.59
2023-06-16T00:57:33.215Z,1002.54
2023-06-16T00:58:33.372Z,1002.63
2023-06-16T00:59:36.613Z,1002.66
2023-06-16T01:00:35.664Z,1002.67
2023-06-16T01:01:35.318Z,1002.68
2023-06-16T01:02:37.985Z,1002.59
2023-06-16T01:03:48.702Z,1002.64
2023-06-16T01:04:36.501Z,1002.62
2023-06-16T01:05:35.645Z,1002.63
2023-06-16T01:06:35.550Z,1002.69
2023-06-16T01:07:36.471Z,1002.64
2023-06-16T01:08:35.843Z,1002.69
2023-06-16T01:09:36.094Z,1002.59
2023-06-16T01:10:38.089Z,1002.65
2023-06-16T01:11:36.734Z,1002.67
2023-06-16T01:12:36.944Z,1002.65
2023-06-16T01:13:38.573Z,1002.59
2023-06-16T01:14:41.143Z,1002.60
2023-06-16T01:15:39.753Z,1002.55
2023-06-16T01:16:37.479Z,1002.53
2023-06-16T01:17:37.691Z,1002.55
2023-06-16T01:18:39.882Z,1002.57
2023-06-16T01:19:38.093Z,1002.62
2023-06-16T01:20:38.240Z,1002.59
2023-06-16T01:21:38.378Z,1002.61
2023-06-16T01:22:38.608Z,1002.62
2023-06-16T01:23:39.631Z,1002.53
2023-06-16T01:24:42.985Z,1002.57
2023-06-16T01:25:41.590Z,1002.56
2023-06-16T01:26:40.267Z,1002.54
2023-06-16T01:27:41.900Z,1002.55
2023-06-16T01:28:39.599Z,1002.54
2023-06-16T01:29:39.828Z,1002.54
2023-06-16T01:30:42.502Z,1002.55
2023-06-16T01:31:40.228Z,1002.54
2023-06-16T01:32:41.445Z,1002.56
2023-06-16T01:33:42.626Z,1002.56
2023-06-16T01:34:42.193Z,1002.55
2023-06-16T01:35:40.866Z,1002.55
2023-06-16T01:36:41.012Z,1002.53
2023-06-16T01:37:43.635Z,1002.55
2023-06-16T01:38:41.329Z,1002.59
2023-06-16T01:39:41.529Z,1002.55
2023-06-16T01:40:41.847Z,1002.56
2023-06-16T01:41:43.108Z,1002.55
2023-06-16T01:42:42.280Z,1002.56
2023-06-16T01:43:44.954Z,1002.59
2023-06-16T01:44:42.740Z,1002.59
2023-06-16T01:45:42.928Z,1002.58
2023-06-16T01:46:45.696Z,1002.61
2023-06-16T01:47:46.366Z,1002.59
2023-06-16T01:48:45.768Z,1002.63
2023-06-16T01:49:43.950Z,1002.62
2023-06-16T01:50:44.168Z,1002.59
2023-06-16T01:51:44.308Z,1002.62
2023-06-16T01:52:45.311Z,1002.61
2023-06-16T01:53:47.464Z,1002.62
2023-06-16T01:54:47.087Z,1002.60
2023-06-16T01:55:44.820Z,1002.60
2023-06-16T01:56:44.992Z,1002.62
2023-06-16T01:57:45.145Z,1002.57
2023-06-16T01:58:45.314Z,1002.59
2023-06-16T01:59:46.925Z,1002.58
2023-06-16T02:00:47.153Z,1002.60
2023-06-16T02:01:48.266Z,1002.59
2023-06-16T02:02:48.552Z,1002.55
2023-06-16T02:03:48.458Z,1002.55
2023-06-16T02:04:48.724Z,1002.55
2023-06-16T02:05:46.962Z,1002.51
2023-06-16T02:06:50.541Z,1002.53
2023-06-16T02:07:47.203Z,1002.52
2023-06-16T02:08:49.922Z,1002.53
2023-06-16T02:09:47.630Z,1002.58
2023-06-16T02:10:47.860Z,1002.55
2023-06-16T02:11:48.182Z,1002.56
2023-06-16T02:12:50.791Z,1002.58
2023-06-16T02:13:49.436Z,1002.55
2023-06-16T02:14:48.659Z,1002.59
2023-06-16T02:15:48.954Z,1002.56
2023-06-16T02:16:51.858Z,1002.58
2023-06-16T02:17:49.631Z,1002.60
2023-06-16T02:18:52.778Z,1002.57
2023-06-16T02:19:50.130Z,1002.60
2023-06-16T02:20:50.456Z,1002.64
2023-06-16T02:21:50.623Z,1002.62
2023-06-16T02:22:50.964Z,1002.59
2023-06-16T02:23:53.924Z,1002.57
2023-06-16T02:24:54.115Z,1002.59
2023-06-16T02:25:54.344Z,1002.59
2023-06-16T02:26:54.572Z,1002.58
2023-06-16T02:27:52.263Z,1002.62
2023-06-16T02:28:53.471Z,1002.57
2023-06-16T02:29:52.711Z,1002.60
2023-06-16T02:30:55.419Z,1002.62
2023-06-16T02:31:56.234Z,1002.66
2023-06-16T02:33:02.376Z,1002.65
2023-06-16T02:33:53.589Z,1002.67
2023-06-16T02:34:53.880Z,1002.66
2023-06-16T02:35:54.165Z,1002.62
2023-06-16T02:36:54.384Z,1002.67
2023-06-16T02:37:56.049Z,1002.68
2023-06-16T02:38:54.732Z,1002.64
2023-06-16T02:39:55.362Z,1002.71
2023-06-16T02:40:55.232Z,1002.66
2023-06-16T02:41:56.617Z,1002.64
2023-06-16T02:42:56.694Z,1002.63
2023-06-16T02:43:59.993Z,1002.63
2023-06-16T02:44:58.217Z,1002.63
2023-06-16T02:45:56.372Z,1002.59
2023-06-16T02:46:59.200Z,1002.58
2023-06-16T02:47:58.025Z,1002.59
2023-06-16T02:48:57.212Z,1002.57
2023-06-16T02:49:57.384Z,1002.63
2023-06-16T02:50:57.544Z,1002.62
2023-06-16T02:51:58.960Z,1002.67
2023-06-16T02:52:58.112Z,1002.70
2023-06-16T02:54:01.034Z,1002.69
2023-06-16T02:54:59.884Z,1002.73
2023-06-16T02:55:59.164Z,1002.72
2023-06-16T02:57:01.232Z,1002.64
2023-06-16T02:58:01.901Z,1002.74
2023-06-16T02:59:02.550Z,1002.71
2023-06-16T03:00:00.435Z,1002.70
2023-06-16T03:01:00.294Z,1002.69
2023-06-16T03:02:02.525Z,1002.72
2023-06-16T03:03:01.452Z,1002.68
2023-06-16T03:05:01.455Z,1002.72
2023-06-16T03:06:04.248Z,1002.68
2023-06-16T03:07:01.845Z,1002.66
2023-06-16T03:08:02.057Z,1002.66
2023-06-16T03:09:02.240Z,1002.63
2023-06-16T03:10:02.437Z,1002.65
2023-06-16T03:11:02.788Z,1002.64
2023-06-16T03:12:02.989Z,1002.62
2023-06-16T03:13:04.613Z,1002.67
2023-06-16T03:14:06.754Z,1002.66
2023-06-16T03:15:05.095Z,1002.69
2023-06-16T03:16:06.314Z,1002.66
2023-06-16T03:17:04.168Z,1002.73
2023-06-16T03:18:04.468Z,1002.70
2023-06-16T03:19:05.727Z,1002.72
2023-06-16T03:20:05.102Z,1002.71
2023-06-16T03:21:05.336Z,1002.70
2023-06-16T03:22:05.726Z,1002.76
2023-06-16T03:23:05.622Z,1002.74
2023-06-16T03:24:14.522Z,1002.74
2023-06-16T03:25:08.844Z,1002.76
2023-06-16T03:26:08.357Z,1002.74
2023-06-16T03:27:09.076Z,1002.72
2023-06-16T03:28:10.328Z,1002.77
2023-06-16T03:29:07.676Z,1002.78
2023-06-16T03:30:09.757Z,1002.79
2023-06-16T03:31:08.930Z,1002.74
2023-06-16T03:32:08.145Z,1002.70
2023-06-16T03:33:10.888Z,1002.77
2023-06-16T03:34:27.313Z,1002.76
2023-06-16T03:35:08.991Z,1002.77
2023-06-16T03:36:10.629Z,1002.74
2023-06-16T03:37:09.344Z,1002.79
2023-06-16T03:38:11.509Z,1002.74
2023-06-16T03:39:09.715Z,1002.75
2023-06-16T03:40:10.846Z,1002.76
2023-06-16T03:41:10.084Z,1002.73
2023-06-16T03:42:12.744Z,1002.73
2023-06-16T03:43:10.464Z,1002.73
2023-06-16T03:45:10.915Z,1002.72
2023-06-16T03:46:11.193Z,1002.78
2023-06-16T03:47:12.334Z,1002.72
2023-06-16T03:48:11.735Z,1002.74
2023-06-16T03:49:13.899Z,1002.76
2023-06-16T03:50:12.107Z,1002.78
2023-06-16T03:51:12.346Z,1002.77
2023-06-16T03:52:12.556Z,1002.78
2023-06-16T03:53:16.666Z,1002.81
2023-06-16T03:54:16.149Z,1002.86
2023-06-16T03:55:13.341Z,1002.84
2023-06-16T03:56:16.004Z,1002.88
2023-06-16T03:57:13.672Z,1002.86
2023-06-16T03:58:13.859Z,1002.89
2023-06-16T03:59:14.082Z,1002.89
2023-06-16T04:00:17.077Z,1002.91
2023-06-16T04:01:14.727Z,1002.97
2023-06-16T04:02:15.124Z,1002.97
2023-06-16T04:03:18.349Z,1002.96
2023-06-16T04:05:15.926Z,1002.91
2023-06-16T04:06:19.261Z,1002.90
2023-06-16T04:07:19.943Z,1002.94
2023-06-16T04:08:17.662Z,1002.96
2023-06-16T04:09:19.350Z,1002.90
2023-06-16T04:10:17.438Z,1002.95
2023-06-16T04:11:17.444Z,1002.98
2023-06-16T04:12:17.634Z,1002.94
2023-06-16T04:13:17.927Z,1002.92
2023-06-16T04:14:22.823Z,1002.86
2023-06-16T04:15:19.379Z,1002.82
2023-06-16T04:16:21.095Z,1002.84
2023-06-16T04:17:18.774Z,1002.87
2023-06-16T04:18:19.116Z,1002.92
2023-06-16T04:19:19.321Z,1002.88
2023-06-16T04:20:20.772Z,1002.84
2023-06-16T04:21:19.695Z,1002.88
2023-06-16T04:22:20.373Z,1002.83
2023-06-16T04:23:21.107Z,1002.83
2023-06-16T04:24:22.893Z,1002.87
2023-06-16T04:25:20.661Z,1002.90
2023-06-16T04:26:23.656Z,1002.87
2023-06-16T04:27:20.875Z,1002.85
2023-06-16T04:28:24.288Z,1002.86
2023-06-16T04:29:24.040Z,1002.89
2023-06-16T04:30:24.256Z,1002.84
2023-06-16T04:31:21.925Z,1002.89
2023-06-16T04:32:22.098Z,1002.94
2023-06-16T04:33:23.315Z,1002.95
2023-06-16T04:34:26.947Z,1002.96
2023-06-16T04:35:24.318Z,1002.94
2023-06-16T04:36:23.938Z,1002.88
2023-06-16T04:37:23.138Z,1002.92
2023-06-16T04:38:25.852Z,1002.94
2023-06-16T04:39:25.962Z,1002.94
2023-06-16T04:40:25.897Z,1002.94
2023-06-16T04:41:25.078Z,1002.94
2023-06-16T04:42:25.748Z,1002.95
2023-06-16T04:43:26.958Z,1002.92
2023-06-16T04:44:26.330Z,1002.89
2023-06-16T04:45:25.121Z,1002.89
2023-06-16T04:46:25.492Z,1002.88
2023-06-16T04:47:26.960Z,1002.89
2023-06-16T04:48:26.154Z,1002.86
2023-06-16T04:49:28.866Z,1002.87
2023-06-16T04:50:28.445Z,1002.86
2023-06-16T04:51:26.623Z,1002.81
2023-06-16T04:52:26.858Z,1002.83
2023-06-16T04:53:28.911Z,1002.84
2023-06-16T04:54:28.112Z,1002.80
2023-06-16T04:55:29.030Z,1002.84
2023-06-16T04:56:29.213Z,1002.78
2023-06-16T04:57:27.956Z,1002.83
2023-06-16T04:58:29.657Z,1002.86
2023-06-16T04:59:29.252Z,1002.80
2023-06-16T05:00:30.688Z,1002.82
2023-06-16T05:01:28.909Z,1002.78
2023-06-16T05:02:32.102Z,1002.76
2023-06-16T05:03:29.355Z,1002.77
2023-06-16T05:04:31.458Z,1002.74
2023-06-16T05:05:32.685Z,1002.73
2023-06-16T05:06:30.834Z,1002.81
2023-06-16T05:07:29.989Z,1002.79
2023-06-16T05:08:30.164Z,1002.72
2023-06-16T05:09:30.424Z,1002.77
2023-06-16T05:10:30.690Z,1002.77
2023-06-16T05:11:31.893Z,1002.78
2023-06-16T05:12:31.104Z,1002.75
2023-06-16T05:13:31.487Z,1002.76
2023-06-16T05:14:34.628Z,1002.80
2023-06-16T05:15:34.783Z,1002.85
2023-06-16T05:16:34.436Z,1002.82
2023-06-16T05:17:36.239Z,1002.85
2023-06-16T05:18:34.149Z,1002.80
2023-06-16T05:19:32.928Z,1002.84
2023-06-16T05:20:33.196Z,1002.81
2023-06-16T05:21:33.486Z,1002.75
2023-06-16T05:22:34.713Z,1002.76
2023-06-16T05:23:34.016Z,1002.73
2023-06-16T05:24:34.538Z,1002.72
2023-06-16T05:25:34.466Z,1002.75
2023-06-16T05:26:34.723Z,1002.73
2023-06-16T05:27:35.056Z,1002.72
2023-06-16T05:28:37.130Z,1002.77
2023-06-16T05:29:35.779Z,1002.78
2023-06-16T05:30:36.511Z,1002.76
2023-06-16T05:31:36.839Z,1002.75
2023-06-16T05:32:39.657Z,1002.75
2023-06-16T05:33:38.745Z,1002.74
2023-06-16T05:34:42.617Z,1002.76
2023-06-16T05:35:38.393Z,1002.76
2023-06-16T05:36:38.731Z,1002.75
2023-06-16T05:37:39.102Z,1002.75
2023-06-16T05:38:38.884Z,1002.78
2023-06-16T05:39:40.151Z,1002.82
2023-06-16T05:40:42.604Z,1002.79
2023-06-16T05:41:42.576Z,1002.77
2023-06-16T05:42:39.599Z,1002.77
2023-06-16T05:43:39.811Z,1002.75
2023-06-16T05:44:41.225Z,1002.72
2023-06-16T05:45:40.009Z,1002.76
2023-06-16T05:46:40.337Z,1002.73
2023-06-16T05:47:42.080Z,1002.76
2023-06-16T05:48:44.552Z,1002.73
2023-06-16T05:49:42.116Z,1002.73
2023-06-16T05:50:42.416Z,1002.72
2023-06-16T05:51:42.787Z,1002.74
2023-06-16T05:52:42.127Z,1002.70
2023-06-16T05:53:43.322Z,1002.69
2023-06-16T05:54:44.266Z,1002.76
2023-06-16T05:55:43.336Z,1002.76
2023-06-16T05:56:44.030Z,1002.73
2023-06-16T05:57:44.609Z,1002.78
2023-06-16T05:58:43.608Z,1002.79
2023-06-16T05:59:44.242Z,1002.77
2023-06-16T06:00:46.185Z,1002.76
2023-06-16T06:01:44.422Z,1002.80
2023-06-16T06:02:46.183Z,1002.84
2023-06-16T06:03:44.197Z,1002.83
2023-06-16T06:04:45.130Z,1002.89
2023-06-16T06:05:46.159Z,1002.86
2023-06-16T06:06:45.872Z,1002.90
2023-06-16T06:07:45.292Z,1002.91
2023-06-16T06:08:46.358Z,1002.91
2023-06-16T06:09:47.008Z,1002.88
2023-06-16T06:10:46.932Z,1002.93
2023-06-16T06:11:49.976Z,1002.95
2023-06-16T06:12:46.280Z,1002.90
2023-06-16T06:13:46.590Z,1002.91
2023-06-16T06:14:47.996Z,1002.91
2023-06-16T06:15:59.041Z,1002.92
2023-06-16T06:16:50.890Z,1002.95
2023-06-16T06:18:24.448Z,1002.96
2023-06-16T06:19:20.166Z,1003.00
2023-06-16T06:20:21.469Z,1002.96
2023-06-16T06:21:20.768Z,1002.98
2023-06-16T06:22:23.119Z,1003.03
2023-06-16T06:23:23.153Z,1002.96
2023-06-16T06:24:29.356Z,1003.02
2023-06-16T06:25:23.290Z,1003.02
2023-06-16T06:26:22.808Z,1003.02
2023-06-16T06:27:22.823Z,1003.04
2023-06-16T06:28:22.440Z,1003.05
2023-06-16T06:29:24.439Z,1003.07
2023-06-16T06:30:25.065Z,1003.11
2023-06-16T06:31:24.127Z,1003.08
2023-06-16T06:32:24.203Z,1003.08
2023-06-16T06:36:26.856Z,1003.10
2023-06-16T06:37:31.316Z,1003.11
2023-06-16T06:38:33.644Z,1003.13
2023-06-16T06:39:32.562Z,1003.16
2023-06-16T06:40:29.971Z,1003.14
2023-06-16T06:41:32.222Z,1003.07
2023-06-16T06:42:34.297Z,1003.10
2023-06-16T06:43:34.220Z,1003.11
2023-06-16T06:44:42.337Z,1003.10
2023-06-16T06:45:36.926Z,1003.14
2023-06-16T06:46:35.058Z,1003.12
2023-06-16T06:48:34.859Z,1003.15
2023-06-16T06:49:30.046Z,1003.11
2023-06-16T06:50:32.385Z,1003.10
2023-06-16T06:51:43.844Z,1003.10
2023-06-16T06:52:32.133Z,1003.13
2023-06-16T06:54:37.260Z,1003.15
2023-06-16T06:55:35.153Z,1003.16
2023-06-16T06:56:36.655Z,1003.18
2023-06-16T06:58:48.374Z,1003.19
2023-06-16T06:59:30.586Z,1003.17
2023-06-16T07:02:02.290Z,1003.22
2023-06-16T07:02:37.030Z,1003.23
2023-06-16T07:03:30.997Z,1003.24
2023-06-16T07:04:48.481Z,1003.27
2023-06-16T07:05:38.896Z,1003.25
2023-06-16T07:06:36.525Z,1003.23
2023-06-16T07:07:45.163Z,1003.25
2023-06-16T07:08:49.408Z,1003.28
2023-06-16T07:09:51.081Z,1003.28
2023-06-16T07:15:45.822Z,1003.26
2023-06-16T07:18:59.076Z,1003.29
2023-06-16T07:21:35.473Z,1003.27
2023-06-16T07:22:45.636Z,1003.20
2023-06-16T07:23:36.136Z,1003.24
2023-06-16T07:25:02.937Z,1003.25
2023-06-16T07:29:50.384Z,1003.23
2023-06-16T07:35:58.269Z,1003.21
2023-06-16T07:37:43.161Z,1003.19
2023-06-16T07:39:45.402Z,1003.24
2023-06-16T07:40:41.786Z,1003.18
2023-06-16T07:41:43.034Z,1003.23
2023-06-16T07:42:43.862Z,1003.24
2023-06-16T07:43:49.095Z,1003.25
2023-06-16T07:44:47.315Z,1003.21
2023-06-16T07:45:43.088Z,1003.24
2023-06-16T07:47:44.805Z,1003.16
2023-06-16T07:48:40.475Z,1003.12
2023-06-16T07:49:41.875Z,1003.17
2023-06-16T07:50:42.029Z,1003.17
2023-06-16T07:58:02.165Z,1003.12
2023-06-16T07:59:51.667Z,1003.11
2023-06-16T08:01:55.840Z,1003.15
2023-06-16T08:02:55.330Z,1003.14
2023-06-16T08:03:59.604Z,1003.15
2023-06-16T08:08:04.097Z,1003.10
2023-06-16T08:11:08.544Z,1003.13
2023-06-16T08:14:59.454Z,1003.12
2023-06-16T08:17:30.677Z,1003.08
2023-06-16T08:19:02.785Z,1003.07
2023-06-16T08:20:18.297Z,1003.07
2023-06-16T08:21:03.038Z,1003.11
2023-06-16T08:22:02.415Z,1003.12
2023-06-16T08:22:58.416Z,1003.09
2023-06-16T08:23:56.108Z,1003.09
2023-06-16T08:24:58.290Z,1003.14
2023-06-16T08:25:58.918Z,1003.10
2023-06-16T08:26:57.264Z,1003.07
2023-06-16T08:27:50.810Z,1003.11
2023-06-16T08:28:53.118Z,1003.12
2023-06-16T08:30:58.549Z,1003.08
2023-06-16T08:33:17.108Z,1003.08
2023-06-16T08:35:34.909Z,1003.03
2023-06-16T08:37:29.088Z,1003.05
2023-06-16T08:37:53.948Z,1003.00
2023-06-16T08:38:56.194Z,1003.01
2023-06-16T08:39:56.573Z,1003.00
2023-06-16T08:40:56.978Z,1003.01
2023-06-16T08:41:57.627Z,1002.98
2023-06-16T08:44:07.888Z,1002.98
2023-06-16T08:45:02.967Z,1002.97
2023-06-16T08:45:59.491Z,1002.92
2023-06-16T08:47:07.244Z,1002.92
2023-06-16T08:49:07.044Z,1002.93
2023-06-16T08:51:55.402Z,1002.89
2023-06-16T08:53:04.756Z,1002.90
2023-06-16T08:53:57.511Z,1002.92
2023-06-16T08:54:58.084Z,1002.86
2023-06-16T08:55:57.221Z,1002.81
2023-06-16T08:56:58.476Z,1002.82
2023-06-16T08:58:02.009Z,1002.89
2023-06-16T08:59:00.005Z,1002.86
2023-06-16T08:59:58.953Z,1002.82
2023-06-16T09:01:01.168Z,1002.88
2023-06-16T09:02:17.807Z,1002.82
2023-06-16T09:03:00.869Z,1002.86
2023-06-16T09:05:37.922Z,1002.79
2023-06-16T09:08:06.279Z,1002.76
2023-06-16T09:09:06.800Z,1002.77
2023-06-16T09:10:01.895Z,1002.75
2023-06-16T09:10:59.684Z,1002.73
2023-06-16T09:11:59.874Z,1002.71
2023-06-16T09:13:02.027Z,1002.71
2023-06-16T09:14:02.434Z,1002.62
2023-06-16T09:15:01.086Z,1002.62
2023-06-16T09:16:02.360Z,1002.60
2023-06-16T09:17:02.649Z,1002.61
2023-06-16T09:18:02.532Z,1002.63
2023-06-16T09:20:21.485Z,1002.56
2023-06-16T09:21:06.205Z,1002.55
2023-06-16T09:22:13.565Z,1002.55
2023-06-16T09:23:09.458Z,1002.50
2023-06-16T09:24:06.195Z,1002.53
2023-06-16T09:25:05.676Z,1002.53
2023-06-16T09:26:07.872Z,1002.48
2023-06-16T09:27:06.359Z,1002.45
2023-06-16T09:28:13.481Z,1002.43
2023-06-16T09:29:10.819Z,1002.48
2023-06-16T09:30:16.181Z,1002.41
2023-06-16T09:31:13.651Z,1002.45
2023-06-16T09:32:14.590Z,1002.47
2023-06-16T09:33:08.855Z,1002.49
2023-06-16T09:34:11.870Z,1002.44
2023-06-16T09:35:09.654Z,1002.45
2023-06-16T09:36:13.394Z,1002.40
2023-06-16T09:37:07.897Z,1002.34
2023-06-16T09:38:40.409Z,1002.42
2023-06-16T09:39:16.125Z,1002.39
2023-06-16T09:40:03.816Z,1002.38
2023-06-16T09:41:10.052Z,1002.39
2023-06-16T09:42:06.158Z,1002.38
2023-06-16T09:43:05.954Z,1002.38
2023-06-16T09:45:07.356Z,1002.34
2023-06-16T09:46:09.899Z,1002.26
2023-06-16T09:49:14.581Z,1002.28
2023-06-16T09:50:21.553Z,1002.34
2023-06-16T09:51:22.519Z,1002.33
2023-06-16T09:52:10.371Z,1002.34
2023-06-16T09:53:17.719Z,1002.37
2023-06-16T09:54:10.351Z,1002.27
2023-06-16T09:55:18.974Z,1002.27
2023-06-16T09:56:14.248Z,1002.29
2023-06-16T09:57:07.899Z,1002.27
2023-06-16T09:58:13.766Z,1002.25
2023-06-16T09:59:15.020Z,1002.27
2023-06-16T10:02:30.395Z,1002.14
2023-06-16T10:03:13.946Z,1002.21
2023-06-16T10:07:40.329Z,1002.15
2023-06-16T10:08:17.505Z,1002.10
2023-06-16T10:09:22.961Z,1002.12
2023-06-16T10:10:14.584Z,1002.09
2023-06-16T10:11:17.126Z,1002.09
2023-06-16T10:12:17.112Z,1002.07
2023-06-16T10:14:21.548Z,1002.06
2023-06-16T10:16:16.490Z,1002.00
2023-06-16T10:17:14.945Z,1001.96
2023-06-16T10:18:23.052Z,1001.95
2023-06-16T10:22:16.277Z,1001.98
2023-06-16T10:23:18.768Z,1001.99
2023-06-16T10:24:19.146Z,1002.02
2023-06-16T10:26:22.667Z,1001.96
2023-06-16T10:27:19.242Z,1001.96
2023-06-16T10:28:22.191Z,1001.86
2023-06-16T10:29:25.237Z,1001.95
2023-06-16T10:34:26.220Z,1001.99
2023-06-16T10:35:18.210Z,1001.99
2023-06-16T10:36:22.118Z,1002.04
2023-06-16T10:37:21.532Z,1002.04
2023-06-16T10:38:17.796Z,1001.90
2023-06-16T10:39:32.807Z,1001.99
2023-06-16T10:40:20.277Z,1001.87
2023-06-16T10:41:26.795Z,1001.82
2023-06-16T10:42:20.349Z,1001.90
2023-06-16T10:43:20.804Z,1001.84
2023-06-16T10:44:29.248Z,1001.84
2023-06-16T10:45:22.242Z,1001.86
2023-06-16T10:46:37.510Z,1001.87
2023-06-16T10:47:19.790Z,1001.84
2023-06-16T10:48:25.876Z,1001.79
2023-06-16T10:49:23.648Z,1001.80
2023-06-16T10:51:28.617Z,1001.83
2023-06-16T10:52:26.513Z,1001.82
2023-06-16T10:53:27.831Z,1001.82
2023-06-16T10:54:26.551Z,1001.86
2023-06-16T10:56:11.355Z,1001.83
2023-06-16T10:56:36.026Z,1001.86
2023-06-16T10:57:33.985Z,1001.83
2023-06-16T10:58:39.133Z,1001.80
2023-06-16T11:00:30.543Z,1001.77
2023-06-16T11:01:31.680Z,1001.76
2023-06-16T11:02:33.092Z,1001.76
2023-06-16T11:03:31.598Z,1001.79
2023-06-16T11:04:33.251Z,1001.78
2023-06-16T11:05:31.824Z,1001.80
2023-06-16T11:06:32.805Z,1001.76
2023-06-16T11:07:35.143Z,1001.82
2023-06-16T11:08:33.549Z,1001.76
2023-06-16T11:09:32.617Z,1001.80
2023-06-16T11:10:32.985Z,1001.82
2023-06-16T11:11:33.706Z,1001.78
2023-06-16T11:12:33.430Z,1001.76
2023-06-16T11:13:33.832Z,1001.80
2023-06-16T11:14:34.183Z,1001.77
2023-06-16T11:15:35.195Z,1001.76
2023-06-16T11:16:36.950Z,1001.79
2023-06-16T11:17:35.463Z,1001.82
2023-06-16T11:18:35.328Z,1001.76
2023-06-16T11:19:36.888Z,1001.75
2023-06-16T11:20:36.989Z,1001.80
2023-06-16T11:21:34.875Z,1001.78
2023-06-16T11:22:35.994Z,1001.75
2023-06-16T11:23:36.257Z,1001.74
2023-06-16T11:24:37.569Z,1001.78
2023-06-16T11:25:35.791Z,1001.70
2023-06-16T11:26:36.898Z,1001.73
2023-06-16T11:27:36.340Z,1001.74
2023-06-16T11:28:37.719Z,1001.71
2023-06-16T11:29:36.339Z,1001.70
2023-06-16T11:30:36.868Z,1001.72
2023-06-16T11:31:37.345Z,1001.73
2023-06-16T11:32:36.778Z,1001.72
2023-06-16T11:33:38.311Z,1001.76
2023-06-16T11:34:37.763Z,1001.68
2023-06-16T11:35:37.393Z,1001.73
2023-06-16T11:36:37.472Z,1001.72
2023-06-16T11:37:37.354Z,1001.70
2023-06-16T11:38:38.519Z,1001.69
2023-06-16T11:39:39.097Z,1001.72
2023-06-16T11:40:39.365Z,1001.72
2023-06-16T11:41:57.370Z,1001.72
2023-06-16T11:42:45.077Z,1001.66
2023-06-16T11:43:49.829Z,1001.65
2023-06-16T11:44:40.476Z,1001.64
2023-06-16T11:45:41.703Z,1001.63
2023-06-16T11:46:48.447Z,1001.64
2023-06-16T11:47:43.167Z,1001.65
2023-06-16T11:48:41.686Z,1001.63
2023-06-16T11:49:41.869Z,1001.67
2023-06-16T11:50:44.623Z,1001.70
2023-06-16T11:51:52.446Z,1001.59
2023-06-16T11:52:42.361Z,1001.65
2023-06-16T11:53:42.586Z,1001.58
2023-06-16T11:54:45.010Z,1001.64
2023-06-16T11:55:42.762Z,1001.57
2023-06-16T11:56:43.584Z,1001.58
2023-06-16T11:57:55.719Z,1001.51
2023-06-16T11:58:43.023Z,1001.54
2023-06-16T11:59:44.427Z,1001.52
2023-06-16T12:00:44.474Z,1001.55
2023-06-16T12:01:46.100Z,1001.49
2023-06-16T12:02:44.484Z,1001.54
2023-06-16T12:03:55.812Z,1001.54
2023-06-16T12:04:49.911Z,1001.54
2023-06-16T12:05:44.939Z,1001.56
2023-06-16T12:06:45.292Z,1001.51
2023-06-16T12:07:44.715Z,1001.53
2023-06-16T12:08:44.778Z,1001.48
2023-06-16T12:09:45.640Z,1001.46
2023-06-16T12:10:52.076Z,1001.45
2023-06-16T12:11:46.030Z,1001.44
2023-06-16T12:12:46.121Z,1001.45
2023-06-16T12:13:46.831Z,1001.44
2023-06-16T12:14:46.855Z,1001.44
2023-06-16T12:15:47.858Z,1001.45
2023-06-16T12:16:45.806Z,1001.43
2023-06-16T12:17:47.229Z,1001.38
2023-06-16T12:18:46.980Z,1001.37
2023-06-16T12:19:46.329Z,1001.44
2023-06-16T12:20:46.830Z,1001.42
2023-06-16T12:21:47.089Z,1001.41
2023-06-16T12:22:48.448Z,1001.45
2023-06-16T12:23:47.760Z,1001.41
2023-06-16T12:24:47.807Z,1001.32
2023-06-16T12:25:47.147Z,1001.38
2023-06-16T12:26:47.727Z,1001.34
2023-06-16T12:27:47.766Z,1001.31
2023-06-16T12:28:48.472Z,1001.24
2023-06-16T12:29:49.085Z,1001.21
2023-06-16T12:30:51.942Z,1001.20
2023-06-16T12:31:49.923Z,1001.16
2023-06-16T12:32:48.853Z,1001.23
2023-06-16T12:33:50.805Z,1001.17
2023-06-16T12:34:52.494Z,1001.16
2023-06-16T12:35:49.993Z,1001.17
2023-06-16T12:36:49.466Z,1001.28
2023-06-16T12:37:49.719Z,1001.25
2023-06-16T12:38:50.351Z,1001.30
2023-06-16T12:39:50.244Z,1001.35
2023-06-16T12:40:51.807Z,1001.31
2023-06-16T12:41:51.296Z,1001.29
2023-06-16T12:42:51.064Z,1001.26
2023-06-16T12:43:52.382Z,1001.21
2023-06-16T12:44:51.776Z,1001.17
2023-06-16T12:45:52.226Z,1001.19
2023-06-16T12:46:52.550Z,1001.20
2023-06-16T12:47:52.826Z,1001.22
2023-06-16T12:48:54.407Z,1001.17
2023-06-16T12:49:54.842Z,1001.19
2023-06-16T12:50:57.057Z,1001.20
2023-06-16T12:51:55.778Z,1001.19
2023-06-16T12:52:54.852Z,1001.24
2023-06-16T12:53:55.126Z,1001.23
2023-06-16T12:54:57.440Z,1001.25
2023-06-16T12:55:55.373Z,1001.23
2023-06-16T12:56:54.867Z,1001.20
2023-06-16T12:57:55.480Z,1001.20
2023-06-16T12:58:55.575Z,1001.27
2023-06-16T12:59:55.678Z,1001.23
2023-06-16T13:00:56.520Z,1001.14
2023-06-16T13:01:56.452Z,1001.22
2023-06-16T13:02:57.365Z,1001.17
2023-06-16T13:04:02.510Z,1001.14
2023-06-16T13:04:56.656Z,1001.08
2023-06-16T13:05:59.557Z,1001.11
2023-06-16T13:06:59.324Z,1001.09
2023-06-16T13:07:59.561Z,1001.06
2023-06-16T13:08:57.976Z,1001.12
2023-06-16T13:10:00.161Z,1001.07
2023-06-16T13:10:58.070Z,1001.05
2023-06-16T13:11:58.428Z,1001.06
2023-06-16T13:12:59.027Z,1001.00
2023-06-16T13:13:58.405Z,1001.08
2023-06-16T13:14:58.785Z,1001.11
2023-06-16T13:16:00.537Z,1001.11
2023-06-16T13:17:00.173Z,1001.04
2023-06-16T13:17:59.618Z,1001.09
2023-06-16T13:18:59.955Z,1001.00
2023-06-16T13:20:00.673Z,1000.97
2023-06-16T13:21:01.130Z,1001.02
2023-06-16T13:22:00.559Z,1000.97
2023-06-16T13:23:00.866Z,1001.00
2023-06-16T13:24:10.583Z,1000.89
2023-06-16T13:25:01.822Z,1000.95
2023-06-16T13:26:01.794Z,1000.91
2023-06-16T13:27:01.662Z,1000.91
2023-06-16T13:28:01.995Z,1000.98
2023-06-16T13:29:04.521Z,1000.88
2023-06-16T13:30:02.415Z,1000.89
2023-06-16T13:31:02.654Z,1000.88
2023-06-16T13:32:04.046Z,1000.82
2023-06-16T13:33:03.446Z,1000.85
2023-06-16T13:35:04.876Z,1000.76
2023-06-16T13:36:05.041Z,1000.71
2023-06-16T13:37:05.058Z,1000.79
2023-06-16T13:38:06.864Z,1000.78
2023-06-16T13:39:09.798Z,1000.75
2023-06-16T13:40:06.150Z,1000.83
2023-06-16T13:41:05.903Z,1000.80
2023-06-16T13:42:06.738Z,1000.85
2023-06-16T13:43:08.134Z,1000.79
2023-06-16T13:44:10.720Z,1000.81
2023-06-16T13:45:13.366Z,1000.70
2023-06-16T13:46:08.439Z,1000.75
2023-06-16T13:47:09.658Z,1000.74
2023-06-16T13:48:08.553Z,1000.68
2023-06-16T13:49:11.270Z,1000.64
2023-06-16T13:50:07.400Z,1000.64
2023-06-16T13:51:09.868Z,1000.67
2023-06-16T13:52:08.019Z,1000.55